Time;durP1;ratioP1;P1;durP2;ratioP2;P2;SDS_P1;SDS_P2;PMS_P1;PMS_P2;Temp;Humidity;BMP_temperature;BMP_pressure;BME280_temperature;BME280_humidity;BME280_pressure;Samples;Min_cycle;Max_cycle;Signal;HPM_P1;HPM_P2
2023/06/06 00:01:25;;;;;;;;;6.00;2.75;;;;;14.05;66.93;102231.53;5041985;28;9678;-67
2023/06/06 00:03:51;;;;;;;;;5.00;5.00;;;;;13.99;67.10;102230.41;5046309;28;9540;-67
2023/06/06 00:06:20;;;;;;;;;5.00;4.50;;;;;13.98;67.38;102228.72;5032311;28;9596;-67
2023/06/06 00:08:52;;;;;;;;;6.00;4.00;;;;;13.91;67.69;102230.47;5048439;28;9603;-66
2023/06/06 00:11:20;;;;;;;;;4.25;4.25;;;;;13.89;67.66;102224.38;5043135;28;9506;-66
2023/06/06 00:13:49;;;;;;;;;3.00;3.00;;;;;13.90;67.92;102231.50;5036435;28;9628;-66
2023/06/06 00:16:16;;;;;;;;;2.50;2.50;;;;;13.93;68.15;102227.56;5043984;28;9787;-66
2023/06/06 00:18:45;;;;;;;;;5.25;3.00;;;;;13.97;67.79;102220.78;5023472;28;9649;-67
2023/06/06 00:21:12;;;;;;;;;4.50;3.00;;;;;13.97;67.72;102228.88;5026869;28;9804;-66
2023/06/06 00:23:39;;;;;;;;;5.25;5.00;;;;;14.00;67.74;102225.81;5043933;28;9550;-67
2023/06/06 00:26:05;;;;;;;;;3.00;3.00;;;;;14.02;67.79;102226.50;5044180;28;9623;-66
2023/06/06 00:28:32;;;;;;;;;5.00;5.00;;;;;14.00;67.56;102223.97;5041851;28;9503;-66
2023/06/06 00:30:58;;;;;;;;;5.00;4.25;;;;;13.98;67.88;102223.31;5027513;28;9549;-67
2023/06/06 00:33:25;;;;;;;;;4.75;4.75;;;;;13.90;67.90;102227.97;5043478;28;9552;-66
2023/06/06 00:35:53;;;;;;;;;6.50;5.00;;;;;13.90;68.27;102222.56;5044326;28;9601;-66
2023/06/06 00:38:19;;;;;;;;;5.50;5.50;;;;;13.95;68.37;102222.84;5037123;28;9697;-66
2023/06/06 00:40:46;;;;;;;;;8.00;6.25;;;;;13.93;68.24;102224.88;5039706;28;9526;-66
2023/06/06 00:43:12;;;;;;;;;6.75;6.00;;;;;13.90;68.34;102227.97;5045664;28;10052;-67
2023/06/06 00:45:39;;;;;;;;;5.75;3.00;;;;;13.94;68.71;102223.88;5022347;28;9703;-67
2023/06/06 00:48:06;;;;;;;;;5.00;5.00;;;;;13.91;68.18;102229.63;5046253;28;9619;-67
2023/06/06 00:50:34;;;;;;;;;6.00;5.25;;;;;13.90;68.78;102227.97;5023804;28;9584;-67
2023/06/06 00:53:01;;;;;;;;;3.00;3.00;;;;;13.91;68.53;102227.78;5044499;28;9604;-67
2023/06/06 00:55:28;;;;;;;;;5.00;3.00;;;;;13.91;68.56;102227.78;5023785;28;9658;-67
2023/06/06 00:57:55;;;;;;;;;4.50;4.50;;;;;13.83;68.25;102220.56;5030638;28;9672;-67
2023/06/06 01:00:22;;;;;;;;;5.50;5.25;;;;;13.76;68.96;102219.59;5043850;28;9689;-67
2023/06/06 01:02:49;;;;;;;;;4.00;2.00;;;;;13.80;68.86;102230.91;5025184;28;9559;-67
2023/06/06 01:05:18;;;;;;;;;2.25;2.25;;;;;13.78;68.81;102231.09;5039809;28;9669;-67
2023/06/06 01:07:47;;;;;;;;;3.50;3.50;;;;;13.81;68.81;102219.91;5021035;28;9728;-67
2023/06/06 01:10:15;;;;;;;;;3.25;2.75;;;;;13.83;68.93;102220.56;5043648;28;9690;-67
2023/06/06 01:13:13;;;;;;;;;6.25;3.25;;;;;13.84;68.84;102221.41;5040791;28;9620;-67
2023/06/06 01:15:55;;;;;;;;;4.75;4.75;;;;;13.83;68.78;102222.44;5046501;28;9765;-67
2023/06/06 01:18:22;;;;;;;;;4.50;3.00;;;;;13.79;69.01;102219.25;5029141;28;9539;-67
2023/06/06 01:20:49;;;;;;;;;5.00;2.00;;;;;13.82;69.05;102223.47;5022135;28;9582;-67
2023/06/06 01:23:17;;;;;;;;;3.75;3.75;;;;;13.86;68.96;102216.66;5038937;28;9480;-67
2023/06/06 01:25:48;;;;;;;;;5.50;3.50;;;;;13.85;69.10;102221.22;5046086;28;9484;-66
2023/06/06 01:28:16;;;;;;;;;4.00;2.75;;;;;13.84;68.56;102219.53;5041681;28;9680;-66
2023/06/06 01:30:44;;;;;;;;;4.50;4.50;;;;;13.79;68.75;102216.53;5041609;28;9605;-66
2023/06/06 01:33:44;;;;;;;;;4.00;4.00;;;;;13.77;69.12;102215.00;5026887;28;9636;-66
2023/06/06 01:36:31;;;;;;;;;5.00;4.50;;;;;13.69;69.41;102209.66;5042010;28;9534;-67
2023/06/06 01:39:06;;;;;;;;;2.00;2.00;;;;;13.72;69.62;102220.13;5042336;28;9711;-67
2023/06/06 01:41:35;;;;;;;;;5.00;5.00;;;;;13.75;69.37;102217.91;5041232;28;9616;-67
2023/06/06 01:44:03;;;;;;;;;6.75;6.00;;;;;13.74;69.08;102216.25;5026764;28;9600;-67
2023/06/06 01:46:30;;;;;;;;;5.00;3.00;;;;;13.73;69.11;102225.41;5040884;28;9536;-67
2023/06/06 01:48:57;;;;;;;;;4.50;3.00;;;;;13.73;69.74;102214.56;5035982;28;9604;-67
2023/06/06 01:51:26;;;;;;;;;9.00;5.50;;;;;13.76;69.43;102221.47;5034097;28;9792;-67
2023/06/06 01:53:55;;;;;;;;;5.00;4.50;;;;;13.74;69.52;102216.25;5040397;28;10486;-67
2023/06/06 01:56:23;;;;;;;;;4.00;3.00;;;;;13.74;69.57;102221.66;5021376;28;9593;-67
2023/06/06 01:58:49;;;;;;;;;4.25;4.25;;;;;13.71;69.58;102227.41;5028993;28;10433;-67
2023/06/06 02:01:16;;;;;;;;;3.25;3.25;;;;;13.73;69.84;102229.94;5006367;28;9733;-67
2023/06/06 02:03:43;;;;;;;;;4.00;4.00;;;;;13.75;69.70;102234.16;5027581;28;9709;-67
2023/06/06 02:06:10;;;;;;;;;6.25;6.25;;;;;13.75;69.97;102233.31;5028216;28;10071;-67
2023/06/06 02:08:38;;;;;;;;;5.00;3.00;;;;;13.69;69.74;102224.03;5046845;28;9872;-67
2023/06/06 02:11:06;;;;;;;;;2.50;2.50;;;;;13.69;70.09;102232.16;5045382;28;10467;-67
2023/06/06 02:13:33;;;;;;;;;5.00;4.00;;;;;13.70;70.21;102228.44;5031578;28;9750;-67
2023/06/06 02:15:59;;;;;;;;;5.25;3.50;;;;;13.73;70.07;102225.41;5043959;28;9747;-66
2023/06/06 02:18:26;;;;;;;;;4.75;4.00;;;;;13.74;69.94;102227.06;5028772;28;9765;-66
2023/06/06 02:20:52;;;;;;;;;3.50;3.50;;;;;13.76;69.79;102229.59;5040723;28;9761;-66
2023/06/06 02:23:19;;;;;;;;;5.00;5.00;;;;;13.73;69.99;102219.97;5050572;28;9528;-67
2023/06/06 02:25:46;;;;;;;;;5.25;4.00;;;;;13.72;69.96;102220.13;5047920;28;10604;-66
2023/06/06 02:28:14;;;;;;;;;10.00;7.50;;;;;13.68;69.98;102216.13;5047797;28;9772;-67
2023/06/06 02:30:41;;;;;;;;;6.00;6.00;;;;;13.64;69.85;102214.78;5025826;28;9875;-67
2023/06/06 02:33:08;;;;;;;;;7.75;7.00;;;;;13.62;70.17;102220.41;5043908;28;9600;-67
2023/06/06 02:35:35;;;;;;;;;3.00;3.00;;;;;13.66;70.02;102219.00;5044228;28;9737;-67
2023/06/06 02:38:02;;;;;;;;;9.00;4.75;;;;;13.64;70.05;102218.34;5040145;28;12083;-67
2023/06/06 02:40:28;;;;;;;;;7.50;7.00;;;;;13.62;69.73;102209.56;5036494;28;9709;-66
2023/06/06 02:42:59;;;;;;;;;8.50;7.25;;;;;13.53;69.88;102214.22;5025855;28;9681;-66
2023/06/06 02:45:26;;;;;;;;;6.00;5.25;;;;;13.49;69.99;102204.78;5049894;28;9768;-66
2023/06/06 02:47:52;;;;;;;;;6.00;5.00;;;;;13.43;70.16;102207.34;5023526;28;9857;-67
2023/06/06 02:50:20;;;;;;;;;12.00;5.25;;;;;13.45;70.04;102210.69;5040128;28;9906;-67
2023/06/06 02:52:47;;;;;;;;;6.25;6.25;;;;;13.42;70.27;102214.63;5032438;28;9837;-67
2023/06/06 02:55:14;;;;;;;;;6.00;6.00;;;;;13.40;70.38;102213.94;5036857;28;9826;-67
2023/06/06 02:57:40;;;;;;;;;8.75;5.25;;;;;13.39;70.53;102216.84;5036911;28;9869;-67
2023/06/06 03:00:08;;;;;;;;;6.00;5.50;;;;;13.40;70.96;102213.09;5045513;28;9690;-67
2023/06/06 03:02:35;;;;;;;;;6.25;5.00;;;;;13.40;70.88;102210.41;5039075;28;9839;-67
2023/06/06 03:05:03;;;;;;;;;5.75;4.00;;;;;13.43;71.01;102212.75;5048525;28;9725;-67
2023/06/06 03:07:32;;;;;;;;;4.50;4.50;;;;;13.45;70.99;102211.56;5049291;28;9639;-67
2023/06/06 03:09:58;;;;;;;;;7.00;6.00;;;;;13.45;70.19;102214.25;5041440;28;9804;-67
2023/06/06 03:12:31;;;;;;;;;9.75;6.00;;;;;13.38;71.15;102215.16;5036789;28;9752;-67
2023/06/06 03:14:59;;;;;;;;;5.00;5.00;;;;;13.36;70.72;102213.44;5040202;28;9882;-67
2023/06/06 03:17:32;;;;;;;;;6.75;5.50;;;;;13.30;70.65;102216.03;5027003;28;10561;-67
2023/06/06 03:19:58;;;;;;;;;4.75;4.50;;;;;13.30;70.88;102219.59;5022433;28;9619;-67
2023/06/06 03:22:27;;;;;;;;;9.00;6.50;;;;;13.30;71.00;102225.00;5044212;28;9692;-67
2023/06/06 03:24:53;;;;;;;;;5.50;5.25;;;;;13.37;71.26;102227.84;5045072;28;10212;-66
2023/06/06 03:27:20;;;;;;;;;6.50;5.00;;;;;13.44;71.04;102223.38;5039983;28;9806;-66
2023/06/06 03:29:46;;;;;;;;;7.50;5.75;;;;;13.45;70.57;102222.38;5047687;28;9622;-66
2023/06/06 03:32:13;;;;;;;;;3.00;2.00;;;;;13.48;71.00;102221.16;5045345;28;9760;-66
2023/06/06 03:34:41;;;;;;;;;7.00;5.00;;;;;13.53;70.96;102224.16;5044896;28;9595;-66
2023/06/06 03:37:10;;;;;;;;;4.50;4.50;;;;;13.52;70.48;102212.50;5027089;28;9876;-67
2023/06/06 03:39:38;;;;;;;;;4.25;4.00;;;;;13.53;70.69;102218.75;5024483;28;9746;-67
2023/06/06 03:42:06;;;;;;;;;5.00;3.00;;;;;13.51;70.69;102221.66;5038621;28;9645;-66
2023/06/06 03:44:34;;;;;;;;;8.75;6.00;;;;;13.49;70.53;102218.28;5041137;28;9739;-67
2023/06/06 03:47:01;;;;;;;;;6.75;6.75;;;;;13.47;70.66;102223.03;5032816;28;9838;-67
2023/06/06 03:49:28;;;;;;;;;6.75;4.75;;;;;13.45;70.48;102222.38;5039967;28;9862;-66
2023/06/06 03:51:55;;;;;;;;;5.00;5.00;;;;;13.47;70.65;102217.63;5028542;28;10593;-66
2023/06/06 03:54:23;;;;;;;;;5.00;4.00;;;;;13.53;70.45;102224.16;5046038;28;9696;-66
2023/06/06 03:56:50;;;;;;;;;6.50;6.50;;;;;13.56;70.38;102215.69;5039274;28;9575;-67
2023/06/06 03:59:16;;;;;;;;;5.50;5.25;;;;;13.49;70.46;102215.59;5044794;28;9776;-66
2023/06/06 04:01:44;;;;;;;;;5.00;5.00;;;;;13.47;70.60;102219.47;5027231;28;9689;-66
2023/06/06 04:04:15;;;;;;;;;6.50;4.25;;;;;13.42;70.38;102217.31;5029295;28;9824;-66
2023/06/06 04:06:41;;;;;;;;;8.00;5.00;;;;;13.39;70.77;102217.66;5048720;28;9824;-66
2023/06/06 04:09:10;;;;;;;;;4.50;4.25;;;;;13.38;70.83;102225.97;5044557;28;9793;-66
2023/06/06 04:11:37;;;;;;;;;3.00;3.00;;;;;13.41;71.10;102218.34;5026802;28;9687;-66
2023/06/06 04:14:04;;;;;;;;;4.00;3.50;;;;;13.40;70.92;102221.22;5045098;28;9892;-66
2023/06/06 04:16:31;;;;;;;;;8.00;6.00;;;;;13.36;70.62;102224.28;5018818;28;9701;-66
2023/06/06 04:18:57;;;;;;;;;7.00;6.00;;;;;13.33;71.02;102219.25;5045335;28;9713;-66
2023/06/06 04:21:24;;;;;;;;;7.00;6.50;;;;;13.24;71.32;102219.44;5030675;28;9834;-66
2023/06/06 04:23:53;;;;;;;;;6.75;5.75;;;;;13.22;71.01;102221.47;5046305;28;10552;-66
2023/06/06 04:26:27;;;;;;;;;6.50;5.50;;;;;13.16;71.75;102220.31;5042981;28;10037;-66
2023/06/06 04:28:58;;;;;;;;;8.75;8.75;;;;;13.11;71.64;102220.00;5036892;28;9712;-66
2023/06/06 04:31:26;;;;;;;;;4.50;3.75;;;;;13.18;71.98;102225.56;5047616;28;9867;-66
2023/06/06 04:33:54;;;;;;;;;6.00;5.25;;;;;13.23;71.92;102229.44;5010324;28;9938;-66
2023/06/06 04:36:25;;;;;;;;;7.25;6.50;;;;;13.30;71.81;102227.69;5044376;28;9834;-66
2023/06/06 04:39:00;;;;;;;;;7.00;5.00;;;;;13.32;71.25;102225.66;5041592;28;10512;-66
2023/06/06 04:41:30;;;;;;;;;6.00;5.00;;;;;13.30;71.51;102224.16;5041693;28;9812;-66
2023/06/06 04:44:17;;;;;;;;;5.25;5.25;;;;;13.26;71.80;102236.34;5045706;28;10028;-66
2023/06/06 04:46:43;;;;;;;;;5.00;3.00;;;;;13.25;71.94;102231.97;5043732;28;9926;-66
2023/06/06 04:49:10;;;;;;;;;6.00;5.00;;;;;13.31;71.68;102226.69;5031758;28;9668;-66
2023/06/06 04:51:37;;;;;;;;;7.75;5.50;;;;;13.31;71.53;102228.53;5045720;28;11088;-65
2023/06/06 04:54:06;;;;;;;;;7.50;7.50;;;;;13.26;71.07;102222.84;5082880;22;9786;-68
2023/06/06 04:56:32;;;;;;;;;7.00;6.00;;;;;13.20;71.66;102224.34;5055741;28;10427;-65
2023/06/06 04:59:06;;;;;;;;;4.50;4.50;;;;;13.19;71.64;102225.38;5069420;28;9813;-65
2023/06/06 05:01:37;;;;;;;;;8.75;6.00;;;;;13.19;71.73;102221.81;5044633;28;9829;-68
2023/06/06 05:04:05;;;;;;;;;7.00;5.25;;;;;13.22;72.11;102222.31;5061608;28;10555;-67
2023/06/06 05:06:34;;;;;;;;;4.50;4.50;;;;;13.28;72.13;102226.19;5066344;28;9946;-67
2023/06/06 05:09:03;;;;;;;;;4.50;4.50;;;;;13.29;71.63;102223.31;5048346;28;10403;-67
2023/06/06 05:11:30;;;;;;;;;5.00;5.00;;;;;13.30;71.74;102219.59;5028489;28;9801;-68
2023/06/06 05:13:56;;;;;;;;;5.00;3.00;;;;;13.32;71.48;102233.75;5070396;28;9573;-67
2023/06/06 05:16:23;;;;;;;;;7.50;7.50;;;;;13.21;71.47;102223.34;5050968;28;10611;-66
2023/06/06 05:18:49;;;;;;;;;7.25;7.25;;;;;13.14;71.91;102229.63;5055457;28;9837;-66
2023/06/06 05:21:17;;;;;;;;;5.75;5.00;;;;;13.16;72.15;102228.41;5069006;28;9657;-68
2023/06/06 05:23:44;;;;;;;;;5.25;5.25;;;;;13.28;72.33;102221.63;5055850;28;9806;-67
2023/06/06 05:26:10;;;;;;;;;7.75;6.00;;;;;13.39;72.03;102220.38;5049991;28;10704;-69
2023/06/06 05:28:38;;;;;;;;;4.50;2.75;;;;;13.46;71.50;102218.66;5038225;28;9758;-67
2023/06/06 05:31:07;;;;;;;;;6.50;5.75;;;;;13.47;70.43;102217.63;5059752;28;9921;-67
2023/06/06 05:33:39;;;;;;;;;8.75;8.00;;;;;13.38;70.85;102226.81;5058675;28;9832;-66
2023/06/06 05:36:06;;;;;;;;;7.25;6.75;;;;;13.38;71.28;102223.28;5065347;28;9738;-66
2023/06/06 05:38:32;;;;;;;;;5.00;5.00;;;;;13.41;70.66;102226.47;5062591;28;9846;-66
2023/06/06 05:40:59;;;;;;;;;6.25;5.50;;;;;13.42;70.28;102230.00;5073559;28;9853;-67
2023/06/06 05:43:26;;;;;;;;;10.00;9.75;;;;;13.32;71.22;102222.09;5072699;28;9678;-68
2023/06/06 05:45:52;;;;;;;;;8.50;7.00;;;;;13.40;71.34;102229.31;5053915;28;9755;-69
2023/06/06 05:48:19;;;;;;;;;3.50;3.50;;;;;13.34;71.24;102222.78;5055042;28;9841;-68
2023/06/06 05:50:45;;;;;;;;;4.25;4.25;;;;;13.34;71.34;102229.03;5055384;28;9625;-69
2023/06/06 05:53:12;;;;;;;;;3.25;1.50;;;;;13.47;71.25;102227.59;5077895;28;9675;-68
2023/06/06 05:55:38;;;;;;;;;10.00;8.00;;;;;13.64;70.97;102231.88;5058082;28;9671;-67
2023/06/06 05:58:05;;;;;;;;;5.00;4.00;;;;;13.78;70.20;102220.28;5067149;28;9832;-68
2023/06/06 06:00:33;;;;;;;;;5.75;4.25;;;;;13.87;69.90;102229.16;5063996;28;9711;-66
2023/06/06 06:03:01;;;;;;;;;9.50;6.50;;;;;13.80;69.17;102226.31;5055756;28;9550;-66
2023/06/06 06:05:28;;;;;;;;;4.75;4.75;;;;;13.75;69.39;102233.31;5073063;28;9527;-67
2023/06/06 06:08:00;;;;;;;;;6.00;5.25;;;;;13.71;69.65;102232.84;5072786;28;10339;-67
2023/06/06 06:10:29;;;;;;;;;5.75;5.75;;;;;13.76;69.37;102238.53;5072194;28;10593;-67
2023/06/06 06:12:55;;;;;;;;;6.75;6.25;;;;;13.78;69.36;102233.81;5072817;28;9693;-67
2023/06/06 06:15:23;;;;;;;;;9.75;7.50;;;;;13.82;69.43;102229.72;5071108;28;9751;-68
2023/06/06 06:17:50;;;;;;;;;6.75;5.50;;;;;13.86;69.26;102227.47;5057401;28;9749;-67
2023/06/06 06:20:19;;;;;;;;;5.00;5.00;;;;;13.89;69.17;102232.50;5052866;28;9663;-68
2023/06/06 06:22:47;;;;;;;;;7.00;5.00;;;;;13.88;68.73;102238.94;5034838;28;9689;-69
2023/06/06 06:25:14;;;;;;;;;5.25;5.25;;;;;13.76;68.39;102235.00;5051350;28;9590;-68
2023/06/06 06:27:42;;;;;;;;;7.50;6.75;;;;;13.72;69.17;102233.66;5034798;28;9769;-67
2023/06/06 06:30:09;;;;;;;;;6.25;6.00;;;;;13.71;69.48;102237.41;5053087;28;10736;-68
2023/06/06 06:32:37;;;;;;;;;7.00;5.25;;;;;13.70;69.72;102247.41;5070872;28;9804;-68
2023/06/06 06:35:08;;;;;;;;;7.50;6.75;;;;;13.66;69.60;102242.53;5072329;28;9822;-68
2023/06/06 06:37:39;;;;;;;;;8.50;7.25;;;;;13.64;69.34;102236.44;5054197;28;9678;-68
2023/06/06 06:40:09;;;;;;;;;9.75;6.00;;;;;13.63;69.87;102241.00;5054892;28;9763;-68
2023/06/06 06:42:39;;;;;;;;;9.50;6.25;;;;;13.70;69.54;102249.25;5072260;28;9664;-68
2023/06/06 06:45:28;;;;;;;;;7.75;6.00;;;;;13.73;69.21;102247.03;5054478;28;9875;-67
2023/06/06 06:47:54;;;;;;;;;8.50;8.50;;;;;13.80;69.44;102247.13;5064131;28;9730;-68
2023/06/06 06:50:21;;;;;;;;;6.75;6.75;;;;;13.92;69.07;102250.25;5051214;28;9712;-67
2023/06/06 06:52:48;;;;;;;;;7.25;7.00;;;;;13.98;68.43;102253.09;5034293;28;9616;-68
2023/06/06 06:55:16;;;;;;;;;6.50;5.50;;;;;13.98;68.56;102242.25;5051697;28;9690;-69
2023/06/06 06:57:43;;;;;;;;;7.50;7.50;;;;;13.98;68.64;102238.72;5052028;28;9670;-69
2023/06/06 07:00:14;;;;;;;;;10.00;7.75;;;;;14.01;68.64;102244.59;5034071;28;9682;-68
2023/06/06 07:02:42;;;;;;;;;7.25;6.50;;;;;14.00;68.84;102240.19;5052460;28;10733;-69
2023/06/06 07:05:10;;;;;;;;;7.50;7.00;;;;;14.05;68.56;102240.50;5071402;28;9599;-67
2023/06/06 07:07:44;;;;;;;;;8.00;5.25;;;;;14.05;68.16;102237.78;5071835;28;9504;-68
2023/06/06 07:10:13;;;;;;;;;6.00;6.00;;;;;14.10;68.35;102245.38;5041502;28;9680;-67
2023/06/06 07:12:40;;;;;;;;;6.00;6.00;;;;;14.14;67.72;102249.41;5051637;28;9615;-68
2023/06/06 07:15:08;;;;;;;;;10.50;9.50;;;;;14.17;68.52;102245.47;5050367;28;9570;-67
2023/06/06 07:17:35;;;;;;;;;6.00;5.75;;;;;14.27;68.45;102248.78;5051663;28;9597;-68
2023/06/06 07:20:05;;;;;;;;;9.50;8.00;;;;;14.35;67.65;102244.09;5034121;28;9737;-68
2023/06/06 07:22:36;;;;;;;;;7.75;6.25;;;;;14.37;67.34;102246.63;5051680;28;9631;-67
2023/06/06 07:25:04;;;;;;;;;8.75;7.75;;;;;14.37;67.31;102243.06;5051364;28;9661;-68
2023/06/06 07:27:36;;;;;;;;;6.00;6.00;;;;;14.37;67.83;102238.50;5051721;28;9785;-67
2023/06/06 07:30:05;;;;;;;;;6.00;6.00;;;;;14.41;67.54;102239.81;5068382;28;9707;-68
2023/06/06 07:32:33;;;;;;;;;7.25;5.50;;;;;14.41;67.33;102228.97;5053190;28;9560;-67
2023/06/06 07:35:00;;;;;;;;;9.00;6.25;;;;;14.43;66.86;102239.63;5070742;28;9504;-67
2023/06/06 07:37:26;;;;;;;;;12.00;10.50;;;;;14.43;66.52;102228.81;5071634;28;9508;-68
2023/06/06 07:39:53;;;;;;;;;7.25;6.00;;;;;14.42;67.09;102227.97;5071525;28;9612;-67
2023/06/06 07:42:20;;;;;;;;;9.00;5.50;;;;;14.45;66.66;102240.28;5071373;28;9482;-67
2023/06/06 07:44:48;;;;;;;;;13.00;10.50;;;;;14.39;66.39;102238.34;5052474;28;9375;-68
2023/06/06 07:47:14;;;;;;;;;9.75;8.75;;;;;14.43;67.33;102231.50;5067324;28;9463;-71
2023/06/06 07:49:43;;;;;;;;;8.75;7.25;;;;;14.54;67.15;102234.63;5053187;28;9585;-69
2023/06/06 07:52:10;;;;;;;;;6.50;6.00;;;;;14.66;67.04;102228.72;5071073;28;9618;-68
2023/06/06 07:54:37;;;;;;;;;6.75;6.75;;;;;14.68;66.71;102235.66;5052764;28;9493;-68
2023/06/06 07:57:07;;;;;;;;;12.50;8.00;;;;;14.73;66.96;102238.63;5053375;28;10313;-67
2023/06/06 07:59:34;;;;;;;;;12.33;7.33;;;;;14.74;66.78;102234.06;5052972;28;9521;-68
2023/06/06 08:02:01;;;;;;;;;9.25;8.75;;;;;14.78;66.60;102230.78;5042415;28;9473;-68
2023/06/06 08:04:28;;;;;;;;;8.75;8.75;;;;;14.78;66.58;102233.47;5032934;28;10351;-68
2023/06/06 08:06:57;;;;;;;;;6.33;5.00;;;;;14.84;66.89;102238.16;5059831;28;9667;-68
2023/06/06 08:09:23;;;;;;;;;10.50;8.75;;;;;14.90;65.87;102227.59;5053103;28;9410;-67
2023/06/06 08:11:50;;;;;;;;;8.50;8.50;;;;;14.89;66.37;102234.06;5070913;28;9606;-67
2023/06/06 08:14:16;;;;;;;;;7.25;7.00;;;;;14.86;66.46;102237.13;5052391;28;10254;-67
2023/06/06 08:16:43;;;;;;;;;9.00;9.00;;;;;14.83;66.65;102230.22;5069110;28;9501;-67
2023/06/06 08:19:09;;;;;;;;;11.00;11.00;;;;;14.77;66.43;102239.94;5052722;28;9506;-67
2023/06/06 08:21:36;;;;;;;;;10.00;10.00;;;;;14.76;66.58;102232.84;5057964;28;10288;-66
2023/06/06 08:24:03;;;;;;;;;8.00;7.33;;;;;14.77;67.17;102231.81;5048732;28;9464;-67
2023/06/06 08:26:30;;;;;;;;;7.00;6.00;;;;;14.91;67.39;102235.56;5069406;28;10113;-67
2023/06/06 08:28:57;;;;;;;;;6.00;6.00;;;;;14.98;66.66;102230.19;5049111;28;9608;-67
2023/06/06 08:31:24;;;;;;;;;13.25;9.00;;;;;15.01;66.01;102224.41;5050282;28;10113;-68
2023/06/06 08:33:51;;;;;;;;;10.25;9.50;;;;;15.03;66.61;102235.91;5050374;28;10422;-67
2023/06/06 08:36:17;;;;;;;;;7.00;7.00;;;;;15.08;66.72;102228.88;5050047;28;9587;-67
2023/06/06 08:38:44;;;;;;;;;9.50;8.75;;;;;15.23;66.25;102233.41;5050407;28;9485;-67
2023/06/06 08:41:14;;;;;;;;;8.00;8.00;;;;;15.30;65.75;102232.47;5032368;28;9552;-68
2023/06/06 08:43:46;;;;;;;;;11.75;10.75;;;;;15.30;66.15;102237.88;5066812;28;9451;-68
2023/06/06 08:46:15;;;;;;;;;14.50;9.50;;;;;15.27;65.87;102230.16;5069937;28;9436;-67
2023/06/06 08:48:43;;;;;;;;;9.25;9.25;;;;;15.34;66.38;102233.75;5070708;28;9371;-67
2023/06/06 08:51:12;;;;;;;;;13.50;9.25;;;;;15.44;66.24;102236.19;5052304;28;9517;-66
2023/06/06 08:53:41;;;;;;;;;7.00;6.67;;;;;15.45;65.58;102242.44;5070189;28;9515;-66
2023/06/06 08:56:10;;;;;;;;;5.33;5.33;;;;;15.42;66.08;102230.09;5069723;28;9397;-67
2023/06/06 08:58:37;;;;;;;;;8.75;8.25;;;;;15.43;65.91;102233.63;5052134;28;9390;-67
2023/06/06 09:01:05;;;;;;;;;8.00;6.25;;;;;15.49;66.03;102228.28;5070056;28;9444;-67
2023/06/06 09:03:38;;;;;;;;;9.25;7.00;;;;;15.53;65.62;102234.19;5069973;28;9474;-66
2023/06/06 09:06:06;;;;;;;;;9.50;6.75;;;;;15.59;65.50;102228.81;5069670;28;9367;-67
2023/06/06 09:08:32;;;;;;;;;8.00;8.00;;;;;15.65;65.74;102229.94;5069942;28;9404;-69
2023/06/06 09:10:59;;;;;;;;;6.67;6.67;;;;;15.76;65.62;102229.44;5070040;28;9368;-66
2023/06/06 09:13:26;;;;;;;;;9.50;9.50;;;;;15.82;64.64;102225.09;5074768;28;9403;-66
2023/06/06 09:15:53;;;;;;;;;6.33;6.33;;;;;15.79;64.16;102231.75;5041442;28;9421;-66
2023/06/06 09:18:21;;;;;;;;;7.00;5.67;;;;;15.79;63.93;102233.63;5076737;28;9297;-67
2023/06/06 09:20:53;;;;;;;;;9.00;7.00;;;;;15.71;64.24;102223.72;5076521;28;9214;-68
2023/06/06 09:23:19;;;;;;;;;7.67;7.67;;;;;15.75;64.67;102225.03;5058829;28;9283;-67
2023/06/06 09:25:47;;;;;;;;;7.00;6.33;;;;;15.86;64.54;102217.41;5076490;28;10072;-67
2023/06/06 09:28:15;;;;;;;;;11.33;9.67;;;;;15.99;64.99;102225.66;5059150;28;9281;-67
2023/06/06 09:30:41;;;;;;;;;6.33;5.33;;;;;16.06;64.66;102227.38;5077344;28;9302;-68
2023/06/06 09:33:09;;;;;;;;;8.33;7.33;;;;;16.07;64.22;102225.50;5075118;28;9283;-68
2023/06/06 09:35:41;;;;;;;;;10.00;9.00;;;;;16.06;63.68;102218.41;5076814;28;10212;-67
2023/06/06 09:38:17;;;;;;;;;9.00;8.00;;;;;15.98;64.53;102227.53;5076299;28;9289;-68
2023/06/06 09:40:46;;;;;;;;;8.00;7.00;;;;;15.99;64.46;102218.34;5058750;28;9367;-67
2023/06/06 09:43:13;;;;;;;;;6.67;6.00;;;;;15.99;64.48;102217.50;5076309;28;9441;-66
2023/06/06 09:45:58;;;;;;;;;8.33;8.00;;;;;16.01;64.69;102216.28;5058086;28;9142;-67
2023/06/06 09:48:27;;;;;;;;;10.67;9.33;;;;;16.07;64.73;102222.78;5050026;28;9370;-67
2023/06/06 09:50:55;;;;;;;;;9.67;9.67;;;;;16.00;64.78;102225.47;5054971;28;9456;-67
2023/06/06 09:53:27;;;;;;;;;13.50;9.25;;;;;16.04;64.44;102221.31;5054699;28;9421;-69
2023/06/06 09:55:57;;;;;;;;;11.00;7.33;;;;;16.10;64.91;102221.56;5055902;28;9449;-68
2023/06/06 09:58:26;;;;;;;;;9.33;8.00;;;;;16.22;64.64;102230.84;5038320;28;9364;-68
2023/06/06 10:00:57;;;;;;;;;6.67;5.33;;;;;16.34;63.49;102220.28;5056349;28;9271;-67
2023/06/06 10:03:24;;;;;;;;;9.67;9.67;;;;;16.52;64.06;102212.44;5056193;28;9338;-67
2023/06/06 10:05:52;;;;;;;;;9.67;8.33;;;;;16.53;62.68;102216.84;5055003;28;10086;-67
2023/06/06 10:08:21;;;;;;;;;9.67;8.00;;;;;16.48;63.50;102214.72;5076152;28;9290;-67
2023/06/06 10:10:49;;;;;;;;;9.33;8.67;;;;;16.47;63.75;102215.75;5059728;28;9260;-67
2023/06/06 10:13:19;;;;;;;;;9.67;9.33;;;;;16.51;63.36;102210.75;5067141;28;9345;-67
2023/06/06 10:15:46;;;;;;;;;7.67;6.33;;;;;16.54;63.13;102205.78;5075925;28;9411;-67
2023/06/06 10:18:13;;;;;;;;;7.67;7.33;;;;;16.53;63.04;102214.97;5054409;28;9176;-68
2023/06/06 10:20:40;;;;;;;;;9.67;6.00;;;;;16.55;63.65;102214.75;5056017;28;9223;-67
2023/06/06 10:23:07;;;;;;;;;14.00;10.33;;;;;16.63;63.57;102220.03;5044163;28;9244;-67
2023/06/06 10:25:37;;;;;;;;;8.00;7.67;;;;;16.60;63.07;102214.16;5034525;28;9233;-67
2023/06/06 10:28:08;;;;;;;;;7.00;7.00;;;;;16.61;63.58;102213.97;5052924;28;9934;-67
2023/06/06 10:30:41;;;;;;;;;12.67;9.67;;;;;16.63;63.49;102208.31;5051491;28;9068;-67
2023/06/06 10:33:29;;;;;;;;;8.00;8.00;;;;;16.55;63.69;102206.59;5043859;28;9948;-67
2023/06/06 10:35:58;;;;;;;;;12.67;10.00;;;;;16.61;64.17;102205.81;5054322;28;9382;-67
2023/06/06 10:38:25;;;;;;;;;8.00;8.00;;;;;16.74;63.59;102203.19;5058868;28;10129;-68
2023/06/06 10:40:54;;;;;;;;;8.00;8.00;;;;;16.86;64.08;102216.22;5052609;28;9093;-66
2023/06/06 10:43:32;;;;;;;;;6.67;5.67;;;;;16.96;62.83;102216.66;5064218;28;8997;-66
2023/06/06 10:46:02;;;;;;;;;9.00;8.00;;;;;16.90;63.38;102209.34;5054241;28;9151;-66
2023/06/06 10:48:45;;;;;;;;;7.00;7.00;;;;;17.03;63.25;102209.38;5070279;28;9285;-66
2023/06/06 10:51:24;;;;;;;;;6.67;6.67;;;;;17.14;63.25;102205.25;5062636;28;9705;-68
2023/06/06 10:54:19;;;;;;;;;8.00;8.00;;;;;17.19;62.72;102208.19;5068192;23;9127;-67
2023/06/06 10:56:54;;;;;;;;;7.67;6.00;;;;;17.23;62.59;102207.56;5047006;28;9160;-66
2023/06/06 10:59:24;;;;;;;;;5.33;5.33;;;;;17.24;62.55;102200.22;5052148;28;9004;-67
2023/06/06 11:01:52;;;;;;;;;11.33;9.00;;;;;17.24;61.55;102206.50;5051774;28;9010;-66
2023/06/06 11:04:23;;;;;;;;;7.33;6.67;;;;;17.10;61.73;102218.41;5049641;28;10030;-66
2023/06/06 11:06:51;;;;;;;;;7.00;7.00;;;;;17.04;62.85;102209.16;5051811;28;9359;-66
2023/06/06 11:09:22;;;;;;;;;7.33;6.67;;;;;17.11;62.86;102213.81;5030059;28;9070;-66
2023/06/06 11:11:50;;;;;;;;;8.33;8.00;;;;;17.14;62.59;102210.69;5032179;28;9238;-66
2023/06/06 11:14:24;;;;;;;;;5.33;5.33;;;;;17.23;62.66;102213.00;5050484;28;8967;-66
2023/06/06 11:16:57;;;;;;;;;11.33;10.00;;;;;17.30;61.44;102210.31;5036829;28;8952;-66
2023/06/06 11:19:30;;;;;;;;;7.67;6.67;;;;;17.34;61.80;102210.72;5031766;28;9197;-66
2023/06/06 11:21:59;;;;;;;;;11.33;10.33;;;;;17.38;61.15;102201.94;5014765;28;8911;-66
2023/06/06 11:24:32;;;;;;;;;8.00;7.67;;;;;17.45;61.99;102204.66;5031127;28;9081;-67
2023/06/06 11:26:59;;;;;;;;;8.33;8.33;;;;;17.40;61.12;102199.84;5031504;28;8910;-67
2023/06/06 11:29:27;;;;;;;;;7.67;7.00;;;;;17.34;61.40;102197.97;5051395;28;9057;-67
2023/06/06 11:31:53;;;;;;;;;9.00;8.67;;;;;17.44;62.31;102206.56;5033450;28;9058;-67
2023/06/06 11:34:20;;;;;;;;;13.00;10.00;;;;;17.60;61.53;102196.31;5050180;28;9229;-67
2023/06/06 11:36:51;;;;;;;;;7.00;7.00;;;;;17.59;61.94;102191.94;5050701;28;9289;-67
2023/06/06 11:39:20;;;;;;;;;11.33;9.33;;;;;17.61;60.95;102201.56;5031541;28;9149;-67